Time;durP1;ratioP1;P1;durP2;ratioP2;P2;SDS_P1;SDS_P2;PMS_P1;PMS_P2;Temp;Humidity;BMP_temperature;BMP_pressure;BME280_temperature;BME280_humidity;BME280_pressure;Samples;Min_cycle;Max_cycle;Signal;HPM_P1;HPM_P2
2023/02/23 00:01:29;;;;;;;7.55;5.00;;;;;;;;;;5112004;28;20028;-35
2023/02/23 00:03:56;;;;;;;7.05;4.82;;;;;;;;;;5112154;28;20043;-31
2023/02/23 00:06:23;;;;;;;7.22;4.57;;;;;;;;;;5111942;28;20032;-32
2023/02/23 00:08:51;;;;;;;6.13;4.50;;;;;;;;;;5112158;28;20024;-31
2023/02/23 00:11:17;;;;;;;7.57;4.90;;;;;;;;;;5111989;28;20030;-34
2023/02/23 00:13:45;;;;;;;7.05;4.50;;;;;;;;;;5111946;28;20374;-33
2023/02/23 00:16:12;;;;;;;10.00;5.35;;;;;;;;;;5111724;28;20427;-33
2023/02/23 00:18:47;;;;;;;9.10;5.40;;;;;;;;;;5112055;28;20028;-38
2023/02/23 00:21:23;;;;;;;7.57;4.75;;;;;;;;;;5111916;28;20023;-38
2023/02/23 00:23:50;;;;;;;7.80;5.15;;;;;;;;;;5110646;28;20035;-36
2023/02/23 00:26:19;;;;;;;7.70;4.68;;;;;;;;;;5111614;28;20053;-33
2023/02/23 00:28:45;;;;;;;8.32;5.47;;;;;;;;;;5110538;28;20030;-36
2023/02/23 00:31:11;;;;;;;6.82;5.38;;;;;;;;;;5111818;28;20032;-34
2023/02/23 00:33:38;;;;;;;7.45;5.40;;;;;;;;;;5111832;28;20028;-31
2023/02/23 00:36:08;;;;;;;6.82;5.13;;;;;;;;;;5111658;28;20481;-37
2023/02/23 00:38:35;;;;;;;6.55;4.95;;;;;;;;;;5111785;28;20024;-34
2023/02/23 00:41:22;;;;;;;10.48;5.45;;;;;;;;;;5111623;28;20217;-34
2023/02/23 00:43:48;;;;;;;6.65;4.72;;;;;;;;;;5111752;28;20494;-34
2023/02/23 00:46:16;;;;;;;7.78;5.15;;;;;;;;;;5111345;28;20525;-33
2023/02/23 00:48:42;;;;;;;8.20;5.15;;;;;;;;;;5111616;28;20079;-33
2023/02/23 00:51:09;;;;;;;7.53;5.53;;;;;;;;;;5111570;28;20111;-35
2023/02/23 00:53:35;;;;;;;8.43;5.28;;;;;;;;;;5111421;28;20455;-34
2023/02/23 00:56:03;;;;;;;7.45;4.65;;;;;;;;;;5111460;28;20023;-32
2023/02/23 00:58:30;;;;;;;5.90;4.43;;;;;;;;;;5111778;28;20466;-32
2023/02/23 01:00:58;;;;;;;8.52;4.97;;;;;;;;;;5111289;28;20027;-38
2023/02/23 01:03:24;;;;;;;7.82;5.15;;;;;;;;;;5111439;28;20023;-31
2023/02/23 01:05:50;;;;;;;7.88;4.97;;;;;;;;;;5111163;28;20169;-32
2023/02/23 01:08:17;;;;;;;8.85;5.15;;;;;;;;;;5111452;28;20394;-37
2023/02/23 01:10:50;;;;;;;7.00;4.78;;;;;;;;;;5113707;28;20448;-32
2023/02/23 01:13:17;;;;;;;6.40;5.00;;;;;;;;;;5114122;28;20027;-34
2023/02/23 01:15:43;;;;;;;8.10;5.50;;;;;;;;;;5115322;28;20028;-33
2023/02/23 01:18:10;;;;;;;7.75;5.20;;;;;;;;;;5115366;28;20026;-32
2023/02/23 01:20:36;;;;;;;8.07;5.07;;;;;;;;;;5115200;28;20027;-34
2023/02/23 01:23:03;;;;;;;8.65;5.07;;;;;;;;;;5115213;27;20516;-31
2023/02/23 01:25:29;;;;;;;8.25;5.13;;;;;;;;;;5115192;28;20045;-34
2023/02/23 01:27:55;;;;;;;8.43;5.53;;;;;;;;;;5115007;27;20027;-38
2023/02/23 01:30:22;;;;;;;7.57;5.50;;;;;;;;;;5115147;28;20023;-39
2023/02/23 01:32:48;;;;;;;8.02;5.32;;;;;;;;;;5114938;28;20110;-39
2023/02/23 01:35:14;;;;;;;13.13;5.53;;;;;;;;;;5114982;28;20051;-40
2023/02/23 01:37:41;;;;;;;8.70;5.38;;;;;;;;;;5114766;28;20492;-39
2023/02/23 01:40:25;;;;;;;7.18;4.88;;;;;;;;;;5114958;28;20051;-41
2023/02/23 01:42:53;;;;;;;8.10;5.20;;;;;;;;;;5114925;28;20393;-37
2023/02/23 01:45:27;;;;;;;9.02;5.47;;;;;;;;;;5114793;28;20068;-38
2023/02/23 01:47:53;;;;;;;;;;;;;;;;;;5115242;28;20038;-38
2023/02/23 01:50:19;;;;;;;8.45;5.60;;;;;;;;;;5114693;28;19948;-41
2023/02/23 01:52:46;;;;;;;8.77;5.47;;;;;;;;;;5114485;27;20023;-37
2023/02/23 01:55:13;;;;;;;8.57;5.40;;;;;;;;;;5115088;28;20020;-41
2023/02/23 01:57:39;;;;;;;8.02;5.45;;;;;;;;;;5114529;28;20034;-41
2023/02/23 02:00:13;;;;;;;7.88;5.13;;;;;;;;;;5114236;28;20108;-40
2023/02/23 02:02:39;;;;;;;8.48;5.50;;;;;;;;;;5114630;28;20393;-39
2023/02/23 02:05:12;;;;;;;9.13;5.95;;;;;;;;;;5114729;28;20492;-40
2023/02/23 02:07:38;;;;;;;7.53;4.97;;;;;;;;;;5114454;28;20088;-40
2023/02/23 02:12:50;;;;;;;8.82;4.97;;;;;;;;;;5114461;28;20032;-41
2023/02/23 02:15:17;;;;;;;8.45;5.68;;;;;;;;;;5114344;28;20411;-41
2023/02/23 02:17:44;;;;;;;7.22;4.88;;;;;;;;;;5114117;28;20020;-36
2023/02/23 02:20:13;;;;;;;8.30;5.85;;;;;;;;;;5114247;28;20667;-38
2023/02/23 02:22:58;;;;;;;8.50;5.40;;;;;;;;;;5112952;28;20024;-37
2023/02/23 02:25:24;;;;;;;;;;;;;;;;;;5114804;28;20030;-39
2023/02/23 02:27:53;;;;;;;7.40;5.05;;;;;;;;;;5114145;28;20361;-40
2023/02/23 02:30:22;;;;;;;7.82;5.43;;;;;;;;;;5114015;27;20046;-41
2023/02/23 02:33:03;;;;;;;8.10;5.35;;;;;;;;;;5113812;28;20055;-39
2023/02/23 02:35:48;;;;;;;7.53;5.20;;;;;;;;;;5113730;28;20023;-37
2023/02/23 02:38:15;;;;;;;;;;;;;;;;;;5114397;28;20451;-38
2023/02/23 02:40:53;;;;;;;8.95;5.70;;;;;;;;;;5113656;28;19907;-40
2023/02/23 02:43:22;;;;;;;7.88;5.63;;;;;;;;;;5113757;28;20054;-38
2023/02/23 02:46:08;;;;;;;8.85;5.72;;;;;;;;;;5113312;28;20412;-39
2023/02/23 02:48:37;;;;;;;8.40;5.50;;;;;;;;;;5113540;28;20055;-38
2023/02/23 02:51:08;;;;;;;8.07;5.18;;;;;;;;;;5113385;28;20020;-40
2023/02/23 02:53:49;;;;;;;7.28;5.30;;;;;;;;;;5113416;28;20030;-37
2023/02/23 02:56:18;;;;;;;7.80;5.25;;;;;;;;;;5113083;28;20028;-38
2023/02/23 02:58:44;;;;;;;8.32;5.47;;;;;;;;;;5113236;28;20489;-40
2023/02/23 04:19:35;;;;;;;7.03;4.75;;;;;;;;;;5111957;28;20051;-41
2023/02/23 04:22:01;;;;;;;8.48;5.80;;;;;;;;;;5111905;28;20397;-41
2023/02/23 04:24:27;;;;;;;6.82;5.45;;;;;;;;;;5112032;28;20046;-40
2023/02/23 04:26:53;;;;;;;7.30;5.65;;;;;;;;;;5111739;28;20031;-38
2023/02/23 04:29:19;;;;;;;6.15;4.60;;;;;;;;;;5110781;28;20032;-41
2023/02/23 04:31:46;;;;;;;7.80;4.93;;;;;;;;;;5111723;28;20027;-40
2023/02/23 04:34:13;;;;;;;6.85;4.53;;;;;;;;;;5111584;28;20023;-38
2023/02/23 04:36:39;;;;;;;7.93;5.38;;;;;;;;;;5111545;28;20039;-40
2023/02/23 04:39:05;;;;;;;8.48;5.72;;;;;;;;;;5111793;28;20047;-38
2023/02/23 04:41:31;;;;;;;6.60;4.85;;;;;;;;;;5111560;28;20016;-40
2023/02/23 04:43:57;;;;;;;9.73;5.32;;;;;;;;;;5111693;28;20089;-41
2023/02/23 04:46:23;;;;;;;8.70;5.85;;;;;;;;;;5114606;28;20481;-40
2023/02/23 04:48:49;;;;;;;8.68;5.40;;;;;;;;;;5115839;28;20035;-40
2023/02/23 04:51:15;;;;;;;8.43;5.18;;;;;;;;;;5115862;28;20026;-38
2023/02/23 04:53:41;;;;;;;8.40;5.20;;;;;;;;;;5115945;28;20389;-40
2023/02/23 04:56:07;;;;;;;8.20;5.82;;;;;;;;;;5115510;28;20027;-39
2023/02/23 04:58:33;;;;;;;7.60;5.13;;;;;;;;;;5115748;28;20027;-38
2023/02/23 05:01:06;;;;;;;8.00;5.70;;;;;;;;;;5115495;28;20541;-37
2023/02/23 05:03:33;;;;;;;10.77;5.72;;;;;;;;;;5115520;28;20126;-39
2023/02/23 05:05:59;;;;;;;8.05;6.00;;;;;;;;;;5115450;28;20028;-39
2023/02/23 05:08:25;;;;;;;7.53;5.20;;;;;;;;;;5115517;28;20421;-39
2023/02/23 05:10:51;;;;;;;8.73;5.65;;;;;;;;;;5115461;28;20098;-37
2023/02/23 05:13:17;;;;;;;6.28;4.90;;;;;;;;;;5115428;28;20117;-39
2023/02/23 05:15:43;;;;;;;8.52;5.60;;;;;;;;;;5115442;28;20090;-41
2023/02/23 05:18:09;;;;;;;7.47;5.35;;;;;;;;;;5115225;28;20024;-40
2023/02/23 05:20:35;;;;;;;8.02;5.00;;;;;;;;;;5115349;28;20058;-40
2023/02/23 05:23:01;;;;;;;8.25;5.40;;;;;;;;;;5115323;28;20081;-38
2023/02/23 05:25:27;;;;;;;6.93;4.93;;;;;;;;;;5115258;28;20024;-41
2023/02/23 05:27:53;;;;;;;7.50;5.55;;;;;;;;;;5115050;28;20032;-38
2023/02/23 05:30:19;;;;;;;9.48;6.07;;;;;;;;;;5115120;28;20019;-34
2023/02/23 05:32:45;;;;;;;7.93;5.45;;;;;;;;;;5114792;28;20055;-32
2023/02/23 05:35:11;;;;;;;7.65;5.18;;;;;;;;;;5115173;28;20452;-36
2023/02/23 05:37:37;;;;;;;8.80;5.70;;;;;;;;;;5114701;28;20026;-35
2023/02/23 05:40:04;;;;;;;8.30;5.70;;;;;;;;;;5114885;28;20019;-33
2023/02/23 05:42:30;;;;;;;7.90;5.70;;;;;;;;;;5114857;27;20028;-35
2023/02/23 05:44:56;;;;;;;8.57;6.03;;;;;;;;;;5114866;28;20501;-32
2023/02/23 05:47:22;;;;;;;10.30;5.43;;;;;;;;;;5114465;28;20023;-32
2023/02/23 05:49:48;;;;;;;10.88;5.97;;;;;;;;;;5114939;28;20058;-32
2023/02/23 05:52:14;;;;;;;7.28;5.50;;;;;;;;;;5114841;28;20442;-32
2023/02/23 05:54:40;;;;;;;8.05;5.28;;;;;;;;;;5114203;28;20024;-33
2023/02/23 05:57:07;;;;;;;10.13;5.82;;;;;;;;;;5114445;28;20446;-32
2023/02/23 05:59:33;;;;;;;8.15;6.22;;;;;;;;;;5114490;28;20030;-32
2023/02/23 06:01:59;;;;;;;7.30;5.47;;;;;;;;;;5114477;28;20020;-32
2023/02/23 06:04:26;;;;;;;8.65;5.30;;;;;;;;;;5113008;28;20112;-32
2023/02/23 06:06:52;;;;;;;7.30;5.10;;;;;;;;;;5114423;28;20443;-32
2023/02/23 06:09:18;;;;;;;9.10;5.72;;;;;;;;;;5114600;28;20051;-34
2023/02/23 06:11:44;;;;;;;8.05;5.40;;;;;;;;;;5114326;28;20030;-35
2023/02/23 06:14:10;;;;;;;7.72;4.90;;;;;;;;;;5114232;28;20024;-38
2023/02/23 06:16:36;;;;;;;7.75;5.78;;;;;;;;;;5113972;28;20024;-34
2023/02/23 06:19:02;;;;;;;9.23;5.75;;;;;;;;;;5114206;28;20134;-32
2023/02/23 06:21:28;;;;;;;7.35;5.63;;;;;;;;;;5114144;28;20470;-32
2023/02/23 06:23:56;;;;;;;8.18;5.53;;;;;;;;;;5114122;28;20023;-32
2023/02/23 06:26:22;;;;;;;8.00;5.80;;;;;;;;;;5113896;28;20027;-34
2023/02/23 06:28:48;;;;;;;9.20;6.00;;;;;;;;;;5114132;27;20027;-32
2023/02/23 06:31:14;;;;;;;7.95;5.65;;;;;;;;;;5113899;28;20110;-34
2023/02/23 06:33:40;;;;;;;7.28;5.60;;;;;;;;;;5113798;28;20048;-32
2023/02/23 06:36:06;;;;;;;7.93;5.60;;;;;;;;;;5113892;28;20060;-35
2023/02/23 06:38:32;;;;;;;8.63;5.75;;;;;;;;;;5113813;28;20024;-34
2023/02/23 06:40:58;;;;;;;8.25;5.45;;;;;;;;;;5113761;28;20023;-33
2023/02/23 06:43:24;;;;;;;9.05;5.32;;;;;;;;;;5113820;28;20469;-32
2023/02/23 06:45:50;;;;;;;7.90;5.70;;;;;;;;;;5113443;28;20027;-33
2023/02/23 06:48:16;;;;;;;9.75;6.03;;;;;;;;;;5113567;28;20031;-33
2023/02/23 06:50:42;;;;;;;7.47;5.30;;;;;;;;;;5113539;28;20076;-32
2023/02/23 06:53:11;;;;;;;7.82;5.22;;;;;;;;;;5113493;28;20031;-31
2023/02/23 06:55:37;;;;;;;10.23;5.63;;;;;;;;;;5113547;28;20047;-32
2023/02/23 06:58:03;;;;;;;8.13;5.65;;;;;;;;;;5113761;28;20054;-33
2023/02/23 07:00:29;;;;;;;9.43;6.47;;;;;;;;;;5113025;28;20115;-36
2023/02/23 07:02:56;;;;;;;9.52;6.13;;;;;;;;;;5113478;28;20058;-34
2023/02/23 07:05:22;;;;;;;8.20;5.72;;;;;;;;;;5113305;28;20027;-33
2023/02/23 07:07:48;;;;;;;6.82;5.38;;;;;;;;;;5112680;28;20035;-33
2023/02/23 07:10:14;;;;;;;7.47;5.25;;;;;;;;;;5113228;28;20027;-32
2023/02/23 07:12:40;;;;;;;8.82;5.82;;;;;;;;;;5113090;28;20374;-36
2023/02/23 07:15:07;;;;;;;10.05;5.80;;;;;;;;;;5113493;28;20524;-34
2023/02/23 07:17:33;;;;;;;8.73;6.10;;;;;;;;;;5112830;28;20090;-35
2023/02/23 07:19:59;;;;;;;7.90;5.30;;;;;;;;;;5113059;28;20149;-35
2023/02/23 07:22:28;;;;;;;8.30;5.85;;;;;;;;;;5112913;28;20500;-34
2023/02/23 07:24:54;;;;;;;9.18;6.10;;;;;;;;;;5112928;28;20027;-31
2023/02/23 07:27:20;;;;;;;9.00;5.68;;;;;;;;;;5112890;28;20020;-31
2023/02/23 07:29:46;;;;;;;7.90;5.43;;;;;;;;;;5113373;28;20083;-32
2023/02/23 07:32:12;;;;;;;8.07;5.65;;;;;;;;;;5112799;27;20028;-33
2023/02/23 07:34:38;;;;;;;7.75;5.65;;;;;;;;;;5112666;28;20027;-34
2023/02/23 07:37:04;;;;;;;8.10;5.78;;;;;;;;;;5112737;28;20027;-31
2023/02/23 07:39:31;;;;;;;10.00;5.78;;;;;;;;;;5112762;28;20020;-32
2023/02/23 07:41:57;;;;;;;9.30;5.97;;;;;;;;;;5112605;28;20081;-32
2023/02/23 07:44:23;;;;;;;7.25;5.32;;;;;;;;;;5111071;28;20150;-33
2023/02/23 07:46:49;;;;;;;8.10;5.97;;;;;;;;;;5112262;28;20516;-32
2023/02/23 07:49:15;;;;;;;7.53;5.88;;;;;;;;;;5112427;28;20023;-31
2023/02/23 07:51:41;;;;;;;6.57;5.05;;;;;;;;;;5112301;28;20035;-33
2023/02/23 07:54:07;;;;;;;10.40;5.78;;;;;;;;;;5112323;28;20064;-32
2023/02/23 07:56:34;;;;;;;7.95;5.30;;;;;;;;;;5112156;28;20516;-35
2023/02/23 07:59:00;;;;;;;7.43;5.20;;;;;;;;;;5112075;28;20020;-33
2023/02/23 08:01:26;;;;;;;8.07;5.35;;;;;;;;;;5112218;28;20099;-34
2023/02/23 08:03:52;;;;;;;8.18;4.95;;;;;;;;;;5112353;28;20438;-38
2023/02/23 08:06:18;;;;;;;6.35;4.80;;;;;;;;;;5111931;28;20019;-35
2023/02/23 08:08:44;;;;;;;6.15;4.82;;;;;;;;;;5112177;28;20543;-32
2023/02/23 08:11:10;;;;;;;6.93;4.97;;;;;;;;;;5112007;28;20045;-32
2023/02/23 08:13:37;;;;;;;8.63;4.78;;;;;;;;;;5111907;27;20093;-33
2023/02/23 08:16:03;;;;;;;5.95;4.50;;;;;;;;;;5111872;28;20115;-31
2023/02/23 08:18:29;;;;;;;6.80;4.38;;;;;;;;;;5112021;28;20102;-31
2023/02/23 08:20:59;;;;;;;6.60;5.00;;;;;;;;;;5111155;28;20083;-32
2023/02/23 08:23:25;;;;;;;8.25;4.63;;;;;;;;;;5112440;28;20618;-34
2023/02/23 08:25:52;;;;;;;6.45;4.88;;;;;;;;;;5111680;28;20134;-35
2023/02/23 08:28:18;;;;;;;8.15;4.63;;;;;;;;;;5111987;28;20023;-31
2023/02/23 08:30:44;;;;;;;7.10;4.65;;;;;;;;;;5111835;28;20072;-36
2023/02/23 08:33:10;;;;;;;5.40;4.40;;;;;;;;;;5111831;28;20054;-32
2023/02/23 08:35:36;;;;;;;6.45;4.70;;;;;;;;;;5110443;28;20066;-36
2023/02/23 08:38:02;;;;;;;5.47;3.92;;;;;;;;;;5111640;28;20393;-33
2023/02/23 08:40:28;;;;;;;6.43;4.30;;;;;;;;;;5111565;28;20016;-32
2023/02/23 08:42:54;;;;;;;7.22;4.28;;;;;;;;;;5111734;28;20027;-35
2023/02/23 08:45:20;;;;;;;6.30;4.18;;;;;;;;;;5111650;28;20401;-35
2023/02/23 08:47:46;;;;;;;6.03;4.43;;;;;;;;;;5111542;28;20081;-31
2023/02/23 08:50:13;;;;;;;6.40;4.65;;;;;;;;;;5111620;28;20028;-33
2023/02/23 08:52:39;;;;;;;11.57;6.63;;;;;;;;;;5111502;28;20027;-35
2023/02/23 08:55:06;;;;;;;13.57;6.97;;;;;;;;;;5110006;28;20023;-34
2023/02/23 08:57:35;;;;;;;14.63;7.32;;;;;;;;;;5111295;28;20092;-35
2023/02/23 09:00:01;;;;;;;11.38;6.63;;;;;;;;;;5111501;28;20027;-33
2023/02/23 09:02:28;;;;;;;9.27;6.43;;;;;;;;;;5111473;28;20028;-34
2023/02/23 09:04:54;;;;;;;9.30;6.38;;;;;;;;;;5111509;28;20024;-35
2023/02/23 09:07:24;;;;;;;11.27;6.70;;;;;;;;;;5111267;28;20055;-32
2023/02/23 09:09:54;;;;;;;9.95;6.30;;;;;;;;;;5111861;28;20054;-32
2023/02/23 09:12:20;;;;;;;8.40;5.80;;;;;;;;;;5111389;28;20107;-35
2023/02/23 09:14:46;;;;;;;12.02;6.40;;;;;;;;;;5111391;28;20062;-32
2023/02/23 09:17:12;;;;;;;10.13;6.13;;;;;;;;;;5111577;28;20027;-32
2023/02/23 09:19:38;;;;;;;9.18;6.25;;;;;;;;;;5111451;28;20028;-32
2023/02/23 09:22:04;;;;;;;8.75;5.95;;;;;;;;;;5111418;28;20040;-34
2023/02/23 09:24:31;;;;;;;9.27;5.40;;;;;;;;;;5111300;28;20031;-34
2023/02/23 09:26:57;;;;;;;10.10;5.78;;;;;;;;;;5111135;28;20027;-37
2023/02/23 09:29:23;;;;;;;10.23;5.50;;;;;;;;;;5111164;28;20038;-36
2023/02/23 09:31:51;;;;;;;8.18;5.18;;;;;;;;;;5113289;28;20036;-36
2023/02/23 09:34:18;;;;;;;9.68;5.68;;;;;;;;;;5115424;28;20032;-38
2023/02/23 09:36:44;;;;;;;8.00;5.43;;;;;;;;;;5114724;28;20477;-36
2023/02/23 09:39:10;;;;;;;7.18;5.03;;;;;;;;;;5114946;28;20103;-37
2023/02/23 09:41:54;;;;;;;7.88;5.22;;;;;;;;;;5114868;28;20088;-37
2023/02/23 09:44:20;;;;;;;;;;;;;;;;;;5115501;28;20028;-34
2023/02/23 09:46:46;;;;;;;10.27;5.18;;;;;;;;;;5114696;28;19911;-32
2023/02/23 09:49:18;;;;;;;8.85;5.13;;;;;;;;;;5114742;28;20116;-38
2023/02/23 09:51:47;;;;;;;6.70;4.82;;;;;;;;;;5114745;27;20462;-38
2023/02/23 09:54:14;;;;;;;8.02;4.63;;;;;;;;;;5114673;28;20031;-33
2023/02/23 09:56:43;;;;;;;7.05;4.78;;;;;;;;;;5114307;28;20030;-31
2023/02/23 09:59:16;;;;;;;7.85;5.00;;;;;;;;;;5114481;28;20055;-35
2023/02/23 10:01:48;;;;;;;6.50;4.50;;;;;;;;;;5114611;28;20374;-36
2023/02/23 10:04:18;;;;;;;7.05;4.82;;;;;;;;;;5114438;28;20034;-37
2023/02/23 10:06:48;;;;;;;8.60;4.78;;;;;;;;;;5114261;28;20020;-39
2023/02/23 10:09:32;;;;;;;9.38;4.68;;;;;;;;;;5113070;28;20028;-35
2023/02/23 10:12:10;;;;;;;8.40;4.38;;;;;;;;;;5114323;28;20303;-33
2023/02/23 10:14:42;;;;;;;8.57;4.43;;;;;;;;;;5114101;28;20427;-35
2023/02/23 10:17:20;;;;;;;5.25;4.25;;;;;;;;;;5114243;28;20020;-32
2023/02/23 10:19:56;;;;;;;6.47;4.03;;;;;;;;;;5114273;28;20028;-35
2023/02/23 10:22:22;;;;;;;7.43;4.82;;;;;;;;;;5114356;28;20020;-32
2023/02/23 10:24:52;;;;;;;7.07;4.18;;;;;;;;;;5112939;28;20461;-35
2023/02/23 10:27:23;;;;;;;6.88;4.18;;;;;;;;;;5113831;28;20519;-31
2023/02/23 10:29:54;;;;;;;7.50;3.97;;;;;;;;;;5114227;28;20031;-42
2023/02/23 10:32:32;;;;;;;6.70;4.10;;;;;;;;;;5114112;28;20420;-41
2023/02/23 10:34:59;;;;;;;6.45;4.10;;;;;;;;;;5114136;28;20077;-41
2023/02/23 10:37:25;;;;;;;7.40;4.35;;;;;;;;;;5113754;28;20019;-40
2023/02/23 10:39:51;;;;;;;5.68;3.53;;;;;;;;;;5113836;28;20455;-41
2023/02/23 10:42:27;;;;;;;5.85;3.60;;;;;;;;;;5113246;28;20415;-42
2023/02/23 10:44:53;;;;;;;6.18;3.65;;;;;;;;;;5113675;28;20024;-42
2023/02/23 10:47:22;;;;;;;6.30;3.78;;;;;;;;;;5113546;28;20031;-42
2023/02/23 10:49:49;;;;;;;6.40;3.60;;;;;;;;;;5113631;28;20118;-41
2023/02/23 10:52:18;;;;;;;5.63;3.78;;;;;;;;;;5113326;28;20527;-42
2023/02/23 10:54:46;;;;;;;7.57;3.78;;;;;;;;;;5113542;28;20020;-43
2023/02/23 10:57:18;;;;;;;11.00;5.43;;;;;;;;;;5113333;28;20019;-42
2023/02/23 10:59:58;;;;;;;11.70;5.22;;;;;;;;;;5113838;28;20031;-42
2023/02/23 11:02:25;;;;;;;10.80;5.80;;;;;;;;;;5113606;28;20466;-40
2023/02/23 11:04:55;;;;;;;13.82;5.57;;;;;;;;;;5112077;28;20031;-41
2023/02/23 11:07:28;;;;;;;13.32;5.65;;;;;;;;;;5113047;28;20023;-42
2023/02/23 11:09:54;;;;;;;9.18;5.18;;;;;;;;;;5113299;28;20038;-43
2023/02/23 11:12:22;;;;;;;12.00;5.72;;;;;;;;;;5113354;28;20112;-43
2023/02/23 11:14:49;;;;;;;10.32;5.25;;;;;;;;;;5113421;27;20035;-42
2023/02/23 11:17:41;;;;;;;14.68;5.60;;;;;;;;;;5111574;28;20023;-42
2023/02/23 11:20:20;;;;;;;10.70;4.75;;;;;;;;;;5111362;28;20033;-43
2023/02/23 11:22:46;;;;;;;12.48;4.90;;;;;;;;;;5113053;28;20020;-43
2023/02/23 11:25:15;;;;;;;9.07;4.55;;;;;;;;;;5113225;28;20038;-43
2023/02/23 11:27:45;;;;;;;9.43;4.72;;;;;;;;;;5112752;28;20028;-42
2023/02/23 11:30:12;;;;;;;9.65;4.57;;;;;;;;;;5113098;28;20483;-43
2023/02/23 11:32:41;;;;;;;8.55;4.53;;;;;;;;;;5113061;28;20019;-40
2023/02/23 11:35:16;;;;;;;10.77;4.80;;;;;;;;;;5112901;28;20115;-43
2023/02/23 11:37:42;;;;;;;8.05;4.15;;;;;;;;;;5112512;28;20435;-39
2023/02/23 11:40:19;;;;;;;11.57;4.65;;;;;;;;;;5112692;28;20023;-40
2023/02/23 11:42:56;;;;;;;8.48;3.92;;;;;;;;;;5112652;28;20035;-42
2023/02/23 11:45:23;;;;;;;7.97;3.97;;;;;;;;;;5112701;28;20024;-43
2023/02/23 11:47:51;;;;;;;8.75;4.07;;;;;;;;;;5112894;28;20368;-42
2023/02/23 11:50:37;;;;;;;9.25;4.07;;;;;;;;;;5111308;28;20020;-42
2023/02/23 11:53:04;;;;;;;8.35;3.45;;;;;;;;;;5112373;28;20466;-42
2023/02/23 11:55:31;;;;;;;5.95;3.50;;;;;;;;;;5112202;28;20032;-43
2023/02/23 11:58:12;;;;;;;8.45;3.63;;;;;;;;;;5112719;28;20103;-42
2023/02/23 12:00:38;;;;;;;8.00;4.07;;;;;;;;;;5112127;28;20024;-43
2023/02/23 12:03:05;;;;;;;8.40;3.53;;;;;;;;;;5112248;28;20102;-43
2023/02/23 12:05:32;;;;;;;5.57;3.30;;;;;;;;;;5112306;28;20039;-39
2023/02/23 12:08:04;;;;;;;8.48;3.45;;;;;;;;;;5112131;28;20023;-42
2023/02/23 12:10:30;;;;;;;5.60;3.30;;;;;;;;;;5112240;28;20035;-42
2023/02/23 12:13:03;;;;;;;6.95;3.28;;;;;;;;;;5112248;28;20031;-41
2023/02/23 12:15:39;;;;;;;5.03;2.95;;;;;;;;;;5111915;28;20023;-43
2023/02/23 12:18:11;;;;;;;8.25;3.30;;;;;;;;;;5111983;28;20493;-43
2023/02/23 12:20:40;;;;;;;5.93;3.15;;;;;;;;;;5112028;28;20028;-43
2023/02/23 12:23:11;;;;;;;5.80;3.20;;;;;;;;;;5112199;28;20015;-43
2023/02/23 12:25:56;;;;;;;8.65;3.40;;;;;;;;;;5110640;28;20035;-43
2023/02/23 12:28:33;;;;;;;5.10;3.00;;;;;;;;;;5112388;28;20028;-42
2023/02/23 12:31:06;;;;;;;7.13;3.08;;;;;;;;;;5112407;28;20024;-42
2023/02/23 12:33:34;;;;;;;5.75;3.30;;;;;;;;;;5111879;28;20028;-43
2023/02/23 12:36:28;;;;;;;6.00;3.00;;;;;;;;;;5111809;28;20038;-41
2023/02/23 12:39:06;;;;;;;7.60;2.92;;;;;;;;;;5107826;28;20031;-40
2023/02/23 12:41:48;;;;;;;5.25;2.80;;;;;;;;;;5111909;28;20027;-43
2023/02/23 12:44:34;;;;;;;4.70;3.00;;;;;;;;;;5111823;28;20060;-41
2023/02/23 12:47:05;;;;;;;6.57;2.60;;;;;;;;;;5104131;28;20546;-43
2023/02/23 12:49:40;;;;;;;4.95;2.60;;;;;;;;;;5110451;28;20119;-41
2023/02/23 12:52:17;;;;;;;6.32;2.92;;;;;;;;;;5111767;28;20028;-43
2023/02/23 12:54:45;;;;;;;4.78;2.85;;;;;;;;;;5111776;28;20106;-43
2023/02/23 12:57:18;;;;;;;5.10;2.88;;;;;;;;;;5111872;28;20080;-42
2023/02/23 13:00:03;;;;;;;5.90;3.00;;;;;;;;;;5111461;28;20489;-43
2023/02/23 13:02:49;;;;;;;4.78;2.90;;;;;;;;;;5111546;28;20024;-40
2023/02/23 13:05:18;;;;;;;5.05;2.78;;;;;;;;;;5111636;28;20040;-39
2023/02/23 13:07:49;;;;;;;6.50;2.95;;;;;;;;;;5115088;28;20111;-41
2023/02/23 13:10:16;;;;;;;7.45;3.08;;;;;;;;;;5115765;28;20036;-38
2023/02/23 13:12:42;;;;;;;5.82;3.00;;;;;;;;;;5115570;28;20020;-39
2023/02/23 13:15:39;;;;;;;5.35;2.90;;;;;;;;;;5115892;28;20114;-42
2023/02/23 13:18:11;;;;;;;5.00;2.90;;;;;;;;;;5106649;28;20036;-43
2023/02/23 13:20:41;;;;;;;4.18;2.55;;;;;;;;;;5114168;28;20499;-39
2023/02/23 13:23:15;;;;;;;5.68;2.80;;;;;;;;;;5115493;28;20035;-43
2023/02/23 13:25:44;;;;;;;3.08;2.33;;;;;;;;;;5115530;28;20424;-42
2023/02/23 13:28:16;;;;;;;4.88;2.80;;;;;;;;;;5115278;28;20027;-39
2023/02/23 13:30:46;;;;;;;4.47;3.03;;;;;;;;;;5115197;28;20500;-40
2023/02/23 13:33:22;;;;;;;4.80;2.58;;;;;;;;;;5115233;28;20024;-43
2023/02/23 13:35:48;;;;;;;6.20;2.70;;;;;;;;;;5115230;28;20020;-40
2023/02/23 13:38:22;;;;;;;3.92;2.42;;;;;;;;;;5115393;28;20385;-43
2023/02/23 13:40:59;;;;;;;5.00;2.42;;;;;;;;;;5115153;28;20018;-43
2023/02/23 13:43:31;;;;;;;5.35;2.63;;;;;;;;;;5115237;28;20469;-43
2023/02/23 13:46:00;;;;;;;5.53;2.75;;;;;;;;;;5115021;28;20445;-41
2023/02/23 13:48:26;;;;;;;3.40;2.40;;;;;;;;;;5114996;28;20477;-43
2023/02/23 13:51:00;;;;;;;5.40;3.00;;;;;;;;;;5114900;28;20031;-42
2023/02/23 13:53:46;;;;;;;3.88;2.60;;;;;;;;;;5114819;28;20034;-43
2023/02/23 13:56:21;;;;;;;7.43;3.20;;;;;;;;;;5114718;28;20027;-43
2023/02/23 13:58:50;;;;;;;6.00;3.10;;;;;;;;;;5115106;28;20031;-39
2023/02/23 14:01:17;;;;;;;5.15;2.53;;;;;;;;;;5114672;28;20036;-43
2023/02/23 14:03:54;;;;;;;4.10;2.50;;;;;;;;;;5114500;28;20505;-42
2023/02/23 14:06:22;;;;;;;4.18;2.80;;;;;;;;;;5114388;27;20027;-41
2023/02/23 14:09:11;;;;;;;4.53;2.78;;;;;;;;;;5114683;28;20081;-41
2023/02/23 14:11:42;;;;;;;4.30;2.55;;;;;;;;;;5108957;28;20036;-43
2023/02/23 14:14:11;;;;;;;4.32;2.70;;;;;;;;;;5114501;28;20103;-39
2023/02/23 14:16:37;;;;;;;4.45;2.85;;;;;;;;;;5114206;28;20019;-42
2023/02/23 14:19:06;;;;;;;6.10;3.10;;;;;;;;;;5113034;28;20024;-42
2023/02/23 14:21:34;;;;;;;4.18;2.92;;;;;;;;;;5114388;28;20026;-43
2023/02/23 14:24:18;;;;;;;5.88;2.88;;;;;;;;;;5114356;28;20114;-43
2023/02/23 14:27:07;;;;;;;4.15;2.58;;;;;;;;;;5112569;28;20084;-42
2023/02/23 14:29:43;;;;;;;3.40;2.70;;;;;;;;;;5114312;27;20028;-42
2023/02/23 14:32:12;;;;;;;5.63;2.90;;;;;;;;;;5114204;28;20043;-42
2023/02/23 14:34:52;;;;;;;3.55;2.53;;;;;;;;;;5114044;28;20098;-43
2023/02/23 14:37:20;;;;;;;4.53;2.50;;;;;;;;;;5112397;28;20016;-42
2023/02/23 14:39:48;;;;;;;4.00;2.80;;;;;;;;;;5114046;28;20047;-42
2023/02/23 14:42:20;;;;;;;4.40;2.42;;;;;;;;;;5113835;28;20496;-43
2023/02/23 14:44:50;;;;;;;5.72;2.95;;;;;;;;;;5113910;28;20106;-43
2023/02/23 14:47:17;;;;;;;3.90;2.70;;;;;;;;;;5112209;28;20072;-42
2023/02/23 14:49:48;;;;;;;3.83;2.55;;;;;;;;;;5113757;28;20163;-41
2023/02/23 14:52:19;;;;;;;5.55;2.60;;;;;;;;;;5113813;28;20020;-42
2023/02/23 14:54:45;;;;;;;3.35;2.65;;;;;;;;;;5113503;28;20113;-35
2023/02/23 14:57:22;;;;;;;3.92;2.25;;;;;;;;;;5113327;28;20331;-35
2023/02/23 15:00:11;;;;;;;4.05;2.38;;;;;;;;;;5113411;27;20028;-35
2023/02/23 15:02:37;;;;;;;4.75;2.47;;;;;;;;;;5113703;28;20028;-38
2023/02/23 15:05:15;;;;;;;4.75;2.67;;;;;;;;;;5113723;28;20020;-38
2023/02/23 15:07:44;;;;;;;5.13;2.95;;;;;;;;;;5113249;28;20058;-34
2023/02/23 15:10:20;;;;;;;4.10;2.40;;;;;;;;;;5113374;28;20521;-42
2023/02/23 15:12:46;;;;;;;3.50;2.47;;;;;;;;;;5113042;28;20043;-43
2023/02/23 15:15:23;;;;;;;5.15;2.80;;;;;;;;;;5113308;28;20390;-41
2023/02/23 15:17:51;;;;;;;2.92;2.35;;;;;;;;;;5113288;28;20031;-43
2023/02/23 15:20:18;;;;;;;4.65;2.50;;;;;;;;;;5113302;28;20068;-42
2023/02/23 15:22:47;;;;;;;4.22;2.63;;;;;;;;;;5113085;28;20066;-42
2023/02/23 15:25:20;;;;;;;3.70;2.22;;;;;;;;;;5112875;28;20055;-38
2023/02/23 15:27:47;;;;;;;3.13;2.15;;;;;;;;;;5113035;28;20027;-43
2023/02/23 15:30:29;;;;;;;4.13;2.33;;;;;;;;;;5112581;28;20051;-41
2023/02/23 15:33:03;;;;;;;4.13;2.47;;;;;;;;;;5111505;27;20032;-42
2023/02/23 15:35:30;;;;;;;3.63;2.33;;;;;;;;;;5112743;28;20024;-42
2023/02/23 15:37:57;;;;;;;4.57;2.55;;;;;;;;;;5112723;28;20027;-43
2023/02/23 15:40:25;;;;;;;3.90;2.70;;;;;;;;;;5112758;28;20019;-39
2023/02/23 15:42:56;;;;;;;3.70;2.20;;;;;;;;;;5112936;28;20146;-40
2023/02/23 15:45:31;;;;;;;4.55;2.47;;;;;;;;;;5112578;28;20026;-43
2023/02/23 15:47:59;;;;;;;4.05;2.50;;;;;;;;;;5112385;28;20145;-43
2023/02/23 15:50:34;;;;;;;3.15;2.08;;;;;;;;;;5112751;28;20164;-43
2023/02/23 15:53:18;;;;;;;3.17;2.20;;;;;;;;;;5111140;28;20015;-34
2023/02/23 15:55:46;;;;;;;2.92;2.22;;;;;;;;;;5112510;28;20405;-39
2023/02/23 15:58:17;;;;;;;3.97;2.30;;;;;;;;;;5112667;28;20727;-37
2023/02/23 16:00:44;;;;;;;4.72;2.30;;;;;;;;;;5110828;28;20042;-43
2023/02/23 16:03:45;;;;;;;3.08;2.10;;;;;;;;;;5112424;28;20038;-42
2023/02/23 16:06:25;;;;;;;3.50;2.40;;;;;;;;;;5069018;28;20028;-43
2023/02/23 16:08:58;;;;;;;3.83;2.08;;;;;;;;;;5104299;28;20027;-42
2023/02/23 16:11:25;;;;;;;3.13;2.13;;;;;;;;;;5112473;28;20192;-43
2023/02/23 16:13:52;;;;;;;2.78;2.05;;;;;;;;;;5112131;28;20031;-41
2023/02/23 16:16:24;;;;;;;3.17;2.20;;;;;;;;;;5111973;28;20042;-43
2023/02/23 16:19:00;;;;;;;4.65;2.30;;;;;;;;;;5112098;28;20055;-41